sensor_id;sensor_type;location;lat;lon;timestamp;noise_LAeq;noise_LA_min;noise_LA_max;noise_LA01;noise_LA95
69616;Laerm;56822;52.516;4.708;2023-05-27T00:00:22;46.67;41.90;52.18;;
69616;Laerm;56822;52.516;4.708;2023-05-27T00:00:32;44.36;41.99;46.23;;
69616;Laerm;56822;52.516;4.708;2023-05-27T00:00:43;45.42;42.97;48.43;;
69616;Laerm;56822;52.516;4.708;2023-05-27T00:00:56;46.96;43.44;52.75;;
69616;Laerm;56822;52.516;4.708;2023-05-27T00:01:07;53.62;43.38;63.57;;
69616;Laerm;56822;52.516;4.708;2023-05-27T00:01:18;53.00;44.40;61.87;;
69616;Laerm;56822;52.516;4.708;2023-05-27T00:01:32;48.71;45.16;54.09;;
69616;Laerm;56822;52.516;4.708;2023-05-27T00:01:49;49.45;45.66;54.05;;
69616;Laerm;56822;52.516;4.708;2023-05-27T00:02:17;47.20;44.04;51.74;;
69616;Laerm;56822;52.516;4.708;2023-05-27T00:02:30;48.03;45.17;50.84;;
69616;Laerm;56822;52.516;4.708;2023-05-27T00:02:41;48.06;45.23;50.75;;
69616;Laerm;56822;52.516;4.708;2023-05-27T00:02:52;46.59;43.72;51.12;;
69616;Laerm;56822;52.516;4.708;2023-05-27T00:03:03;46.82;42.41;51.96;;
69616;Laerm;56822;52.516;4.708;2023-05-27T00:03:17;46.41;44.19;48.50;;
69616;Laerm;56822;52.516;4.708;2023-05-27T00:03:27;45.32;42.00;50.76;;
69616;Laerm;56822;52.516;4.708;2023-05-27T00:03:37;45.56;41.94;50.28;;
69616;Laerm;56822;52.516;4.708;2023-05-27T00:03:48;43.29;40.46;47.00;;
69616;Laerm;56822;52.516;4.708;2023-05-27T00:03:58;45.55;43.01;49.41;;
69616;Laerm;56822;52.516;4.708;2023-05-27T00:04:11;47.11;43.76;50.23;;
69616;Laerm;56822;52.516;4.708;2023-05-27T00:04:22;47.55;44.19;52.34;;
69616;Laerm;56822;52.516;4.708;2023-05-27T00:04:40;46.07;42.80;49.64;;
69616;Laerm;56822;52.516;4.708;2023-05-27T00:04:50;43.76;40.48;47.57;;
69616;Laerm;56822;52.516;4.708;2023-05-27T00:05:04;42.52;38.93;47.64;;
69616;Laerm;56822;52.516;4.708;2023-05-27T00:05:15;42.71;40.07;45.77;;
69616;Laerm;56822;52.516;4.708;2023-05-27T00:05:26;42.27;39.43;46.59;;
69616;Laerm;56822;52.516;4.708;2023-05-27T00:05:37;42.93;40.48;45.56;;
69616;Laerm;56822;52.516;4.708;2023-05-27T00:05:47;44.37;41.39;48.17;;
69616;Laerm;56822;52.516;4.708;2023-05-27T00:05:57;44.98;41.54;47.91;;
69616;Laerm;56822;52.516;4.708;2023-05-27T00:06:09;45.49;42.17;49.56;;
69616;Laerm;56822;52.516;4.708;2023-05-27T00:06:20;44.83;42.29;48.24;;
69616;Laerm;56822;52.516;4.708;2023-05-27T00:06:31;46.23;42.80;54.24;;
69616;Laerm;56822;52.516;4.708;2023-05-27T00:06:45;42.89;39.47;46.66;;
69616;Laerm;56822;52.516;4.708;2023-05-27T00:06:56;46.18;41.75;52.37;;
69616;Laerm;56822;52.516;4.708;2023-05-27T00:07:06;47.44;42.48;52.15;;
69616;Laerm;56822;52.516;4.708;2023-05-27T00:07:16;45.52;41.58;50.71;;
69616;Laerm;56822;52.516;4.708;2023-05-27T00:07:27;46.83;40.24;52.38;;
69616;Laerm;56822;52.516;4.708;2023-05-27T00:07:38;41.94;39.02;44.47;;
69616;Laerm;56822;52.516;4.708;2023-05-27T00:07:48;42.38;40.09;44.44;;
69616;Laerm;56822;52.516;4.708;2023-05-27T00:08:02;45.23;41.70;50.29;;
69616;Laerm;56822;52.516;4.708;2023-05-27T00:08:31;44.12;40.65;47.59;;
69616;Laerm;56822;52.516;4.708;2023-05-27T00:08:45;45.89;40.81;50.80;;
69616;Laerm;56822;52.516;4.708;2023-05-27T00:08:59;45.89;42.90;48.87;;
69616;Laerm;56822;52.516;4.708;2023-05-27T00:09:10;45.53;43.20;48.00;;
69616;Laerm;56822;52.516;4.708;2023-05-27T00:09:38;46.29;41.84;50.21;;
69616;Laerm;56822;52.516;4.708;2023-05-27T00:09:49;47.22;44.49;49.34;;
69616;Laerm;56822;52.516;4.708;2023-05-27T00:10:00;47.55;44.04;52.84;;
69616;Laerm;56822;52.516;4.708;2023-05-27T00:10:12;48.61;45.08;54.87;;
69616;Laerm;56822;52.516;4.708;2023-05-27T00:10:25;46.73;44.10;49.60;;
69616;Laerm;56822;52.516;4.708;2023-05-27T00:10:35;46.49;43.16;52.58;;
69616;Laerm;56822;52.516;4.708;2023-05-27T00:11:06;46.12;42.92;49.13;;
69616;Laerm;56822;52.516;4.708;2023-05-27T00:11:17;47.91;45.13;52.11;;
69616;Laerm;56822;52.516;4.708;2023-05-27T00:11:46;44.91;42.15;48.24;;
69616;Laerm;56822;52.516;4.708;2023-05-27T00:11:58;44.39;41.97;48.27;;
69616;Laerm;56822;52.516;4.708;2023-05-27T00:12:09;45.31;41.80;49.47;;
69616;Laerm;56822;52.516;4.708;2023-05-27T00:12:20;45.89;43.00;49.80;;
69616;Laerm;56822;52.516;4.708;2023-05-27T00:12:31;45.44;42.36;49.11;;
69616;Laerm;56822;52.516;4.708;2023-05-27T00:12:42;43.79;40.06;47.41;;
69616;Laerm;56822;52.516;4.708;2023-05-27T00:12:52;41.06;38.97;43.04;;
69616;Laerm;56822;52.516;4.708;2023-05-27T00:13:02;45.10;41.39;48.61;;
69616;Laerm;56822;52.516;4.708;2023-05-27T00:13:13;46.86;43.77;50.28;;
69616;Laerm;56822;52.516;4.708;2023-05-27T00:13:24;49.02;46.02;54.89;;
69616;Laerm;56822;52.516;4.708;2023-05-27T00:14:01;44.30;40.22;50.01;;
69616;Laerm;56822;52.516;4.708;2023-05-27T00:14:11;47.30;42.12;53.91;;
69616;Laerm;56822;52.516;4.708;2023-05-27T00:14:21;46.20;42.71;49.94;;
69616;Laerm;56822;52.516;4.708;2023-05-27T00:14:32;46.80;43.27;51.47;;
69616;Laerm;56822;52.516;4.708;2023-05-27T00:14:43;45.44;42.93;48.24;;
69616;Laerm;56822;52.516;4.708;2023-05-27T00:14:53;46.40;42.06;53.33;;
69616;Laerm;56822;52.516;4.708;2023-05-27T00:15:03;45.59;43.44;47.76;;
69616;Laerm;56822;52.516;4.708;2023-05-27T00:15:14;45.30;41.95;48.90;;
69616;Laerm;56822;52.516;4.708;2023-05-27T00:15:24;46.64;43.20;51.42;;
69616;Laerm;56822;52.516;4.708;2023-05-27T00:15:35;44.27;41.53;46.60;;
69616;Laerm;56822;52.516;4.708;2023-05-27T00:15:45;45.45;42.97;48.21;;
69616;Laerm;56822;52.516;4.708;2023-05-27T00:15:56;44.86;41.73;48.59;;
69616;Laerm;56822;52.516;4.708;2023-05-27T00:16:06;44.99;41.33;48.67;;
69616;Laerm;56822;52.516;4.708;2023-05-27T00:16:57;46.19;42.11;53.89;;
69616;Laerm;56822;52.516;4.708;2023-05-27T00:17:07;46.25;42.72;53.95;;
69616;Laerm;56822;52.516;4.708;2023-05-27T00:17:19;46.11;43.23;52.65;;
69616;Laerm;56822;52.516;4.708;2023-05-27T00:17:29;42.76;39.83;46.26;;
69616;Laerm;56822;52.516;4.708;2023-05-27T00:17:40;44.32;41.41;47.94;;
69616;Laerm;56822;52.516;4.708;2023-05-27T00:17:52;44.80;41.14;51.44;;
69616;Laerm;56822;52.516;4.708;2023-05-27T00:18:02;44.19;41.71;47.68;;
69616;Laerm;56822;52.516;4.708;2023-05-27T00:18:13;46.39;42.68;49.76;;
69616;Laerm;56822;52.516;4.708;2023-05-27T00:18:23;45.92;41.26;50.90;;
69616;Laerm;56822;52.516;4.708;2023-05-27T00:18:34;43.50;39.67;52.24;;
69616;Laerm;56822;52.516;4.708;2023-05-27T00:18:46;43.29;39.82;47.11;;
69616;Laerm;56822;52.516;4.708;2023-05-27T00:18:57;43.83;39.69;48.36;;
69616;Laerm;56822;52.516;4.708;2023-05-27T00:19:08;42.31;38.95;46.46;;
69616;Laerm;56822;52.516;4.708;2023-05-27T00:19:18;41.17;38.71;44.73;;
69616;Laerm;56822;52.516;4.708;2023-05-27T00:19:29;44.95;39.62;49.88;;
69616;Laerm;56822;52.516;4.708;2023-05-27T00:19:41;41.95;38.20;48.18;;
69616;Laerm;56822;52.516;4.708;2023-05-27T00:19:52;38.99;35.50;44.24;;
69616;Laerm;56822;52.516;4.708;2023-05-27T00:20:04;38.61;35.21;41.18;;
69616;Laerm;56822;52.516;4.708;2023-05-27T00:20:16;39.52;36.63;43.60;;
69616;Laerm;56822;52.516;4.708;2023-05-27T00:20:27;40.56;38.19;43.10;;
69616;Laerm;56822;52.516;4.708;2023-05-27T00:20:40;43.18;39.10;48.98;;
69616;Laerm;56822;52.516;4.708;2023-05-27T00:20:51;44.63;41.94;48.16;;
69616;Laerm;56822;52.516;4.708;2023-05-27T00:21:01;44.79;41.37;48.99;;
69616;Laerm;56822;52.516;4.708;2023-05-27T00:21:22;47.71;40.92;60.56;;
69616;Laerm;56822;52.516;4.708;2023-05-27T00:21:33;47.56;42.03;54.97;;
69616;Laerm;56822;52.516;4.708;2023-05-27T00:21:43;44.23;40.68;47.10;;
69616;Laerm;56822;52.516;4.708;2023-05-27T00:21:53;46.25;41.88;51.91;;
69616;Laerm;56822;52.516;4.708;2023-05-27T00:22:04;44.22;39.98;47.54;;
69616;Laerm;56822;52.516;4.708;2023-05-27T00:22:15;44.37;41.13;48.29;;
69616;Laerm;56822;52.516;4.708;2023-05-27T00:22:26;45.91;42.68;51.32;;
69616;Laerm;56822;52.516;4.708;2023-05-27T00:22:38;43.90;40.12;47.34;;
69616;Laerm;56822;52.516;4.708;2023-05-27T00:22:49;44.18;40.32;48.93;;
69616;Laerm;56822;52.516;4.708;2023-05-27T00:23:00;45.82;41.27;51.26;;
69616;Laerm;56822;52.516;4.708;2023-05-27T00:23:10;44.55;41.17;47.33;;
69616;Laerm;56822;52.516;4.708;2023-05-27T00:23:21;44.22;40.45;47.99;;
69616;Laerm;56822;52.516;4.708;2023-05-27T00:23:52;39.66;35.36;45.48;;
69616;Laerm;56822;52.516;4.708;2023-05-27T00:24:02;43.33;36.43;49.14;;
69616;Laerm;56822;52.516;4.708;2023-05-27T00:24:13;41.89;37.73;46.37;;
69616;Laerm;56822;52.516;4.708;2023-05-27T00:24:24;42.81;39.34;45.25;;
69616;Laerm;56822;52.516;4.708;2023-05-27T00:24:35;43.69;40.14;46.74;;
69616;Laerm;56822;52.516;4.708;2023-05-27T00:24:47;43.73;39.71;47.23;;
69616;Laerm;56822;52.516;4.708;2023-05-27T00:24:58;41.94;38.43;46.48;;
69616;Laerm;56822;52.516;4.708;2023-05-27T00:25:47;44.00;40.08;49.16;;
69616;Laerm;56822;52.516;4.708;2023-05-27T00:25:57;41.42;38.74;45.74;;
69616;Laerm;56822;52.516;4.708;2023-05-27T00:26:08;42.87;37.06;47.09;;
69616;Laerm;56822;52.516;4.708;2023-05-27T00:26:18;39.11;36.47;41.17;;
69616;Laerm;56822;52.516;4.708;2023-05-27T00:26:29;40.97;35.89;45.68;;
69616;Laerm;56822;52.516;4.708;2023-05-27T00:26:39;40.77;36.19;45.98;;
69616;Laerm;56822;52.516;4.708;2023-05-27T00:26:50;39.75;37.25;41.90;;
69616;Laerm;56822;52.516;4.708;2023-05-27T00:27:00;40.92;37.32;44.37;;
69616;Laerm;56822;52.516;4.708;2023-05-27T00:27:30;42.59;37.03;51.31;;
69616;Laerm;56822;52.516;4.708;2023-05-27T00:27:40;39.03;36.43;43.87;;
69616;Laerm;56822;52.516;4.708;2023-05-27T00:27:50;39.68;36.89;43.75;;
69616;Laerm;56822;52.516;4.708;2023-05-27T00:28:01;43.01;39.44;46.55;;
69616;Laerm;56822;52.516;4.708;2023-05-27T00:28:11;43.80;40.68;46.38;;
69616;Laerm;56822;52.516;4.708;2023-05-27T00:28:22;45.55;40.94;48.98;;
69616;Laerm;56822;52.516;4.708;2023-05-27T00:28:32;43.20;39.11;47.67;;
69616;Laerm;56822;52.516;4.708;2023-05-27T00:28:43;42.92;38.94;47.48;;
69616;Laerm;56822;52.516;4.708;2023-05-27T00:28:53;39.37;36.09;47.06;;
69616;Laerm;56822;52.516;4.708;2023-05-27T00:29:03;41.86;39.06;47.83;;
69616;Laerm;56822;52.516;4.708;2023-05-27T00:29:15;42.58;39.02;49.06;;
69616;Laerm;56822;52.516;4.708;2023-05-27T00:29:26;43.96;41.40;47.96;;
69616;Laerm;56822;52.516;4.708;2023-05-27T00:29:36;44.48;41.24;53.52;;
69616;Laerm;56822;52.516;4.708;2023-05-27T00:29:47;42.41;39.17;47.62;;
69616;Laerm;56822;52.516;4.708;2023-05-27T00:29:58;43.56;39.42;50.93;;
69616;Laerm;56822;52.516;4.708;2023-05-27T00:30:08;43.39;39.22;47.87;;
69616;Laerm;56822;52.516;4.708;2023-05-27T00:30:19;44.51;40.50;48.74;;
69616;Laerm;56822;52.516;4.708;2023-05-27T00:30:43;43.22;39.93;48.05;;
69616;Laerm;56822;52.516;4.708;2023-05-27T00:30:53;42.20;39.07;46.72;;
69616;Laerm;56822;52.516;4.708;2023-05-27T00:31:04;44.01;40.88;46.52;;
69616;Laerm;56822;52.516;4.708;2023-05-27T00:31:14;43.00;40.10;47.09;;
69616;Laerm;56822;52.516;4.708;2023-05-27T00:31:25;44.27;40.50;47.00;;
69616;Laerm;56822;52.516;4.708;2023-05-27T00:31:35;44.84;41.86;48.48;;
69616;Laerm;56822;52.516;4.708;2023-05-27T00:31:46;48.92;43.86;53.59;;
69616;Laerm;56822;52.516;4.708;2023-05-27T00:31:56;46.80;41.97;50.53;;
69616;Laerm;56822;52.516;4.708;2023-05-27T00:32:07;43.97;40.10;48.30;;
69616;Laerm;56822;52.516;4.708;2023-05-27T00:32:58;45.16;39.61;50.70;;
69616;Laerm;56822;52.516;4.708;2023-05-27T00:33:08;45.74;41.78;49.62;;
69616;Laerm;56822;52.516;4.708;2023-05-27T00:33:18;45.50;41.53;50.99;;
69616;Laerm;56822;52.516;4.708;2023-05-27T00:33:29;45.84;42.40;54.54;;
69616;Laerm;56822;52.516;4.708;2023-05-27T00:33:39;44.95;41.62;49.03;;
69616;Laerm;56822;52.516;4.708;2023-05-27T00:33:50;43.72;40.99;47.23;;
69616;Laerm;56822;52.516;4.708;2023-05-27T00:34:00;43.87;40.44;48.13;;
69616;Laerm;56822;52.516;4.708;2023-05-27T00:34:11;43.44;40.73;48.88;;
69616;Laerm;56822;52.516;4.708;2023-05-27T00:34:22;42.62;39.69;45.96;;
69616;Laerm;56822;52.516;4.708;2023-05-27T00:34:32;43.81;41.00;47.07;;
69616;Laerm;56822;52.516;4.708;2023-05-27T00:34:44;41.39;38.21;45.13;;
69616;Laerm;56822;52.516;4.708;2023-05-27T00:34:54;44.17;41.08;47.19;;
69616;Laerm;56822;52.516;4.708;2023-05-27T00:35:05;42.12;38.55;44.25;;
69616;Laerm;56822;52.516;4.708;2023-05-27T00:35:15;41.35;38.16;45.86;;
69616;Laerm;56822;52.516;4.708;2023-05-27T00:35:26;40.69;38.08;44.07;;
69616;Laerm;56822;52.516;4.708;2023-05-27T00:35:36;42.64;38.28;58.15;;
69616;Laerm;56822;52.516;4.708;2023-05-27T00:35:46;45.20;39.97;48.85;;
69616;Laerm;56822;52.516;4.708;2023-05-27T00:35:57;44.89;41.15;52.34;;
69616;Laerm;56822;52.516;4.708;2023-05-27T00:36:17;45.34;40.92;51.17;;
69616;Laerm;56822;52.516;4.708;2023-05-27T00:36:27;41.94;38.63;46.32;;
69616;Laerm;56822;52.516;4.708;2023-05-27T00:36:37;40.27;37.93;42.68;;
69616;Laerm;56822;52.516;4.708;2023-05-27T00:36:48;40.81;36.86;45.26;;
69616;Laerm;56822;52.516;4.708;2023-05-27T00:36:58;41.42;38.42;44.88;;
69616;Laerm;56822;52.516;4.708;2023-05-27T00:37:08;39.98;36.23;43.30;;
69616;Laerm;56822;52.516;4.708;2023-05-27T00:37:18;42.35;38.79;44.72;;
69616;Laerm;56822;52.516;4.708;2023-05-27T00:37:29;44.93;41.54;48.79;;
69616;Laerm;56822;52.516;4.708;2023-05-27T00:37:40;45.08;38.08;49.19;;
69616;Laerm;56822;52.516;4.708;2023-05-27T00:37:50;41.12;37.79;48.09;;
69616;Laerm;56822;52.516;4.708;2023-05-27T00:38:01;41.40;38.88;47.11;;
69616;Laerm;56822;52.516;4.708;2023-05-27T00:38:11;43.79;40.02;47.82;;
69616;Laerm;56822;52.516;4.708;2023-05-27T00:40:57;44.77;40.99;51.28;;
69616;Laerm;56822;52.516;4.708;2023-05-27T00:41:10;44.73;41.47;47.77;;
69616;Laerm;56822;52.516;4.708;2023-05-27T00:41:21;47.39;43.73;49.78;;
69616;Laerm;56822;52.516;4.708;2023-05-27T00:41:33;45.80;40.74;51.60;;
69616;Laerm;56822;52.516;4.708;2023-05-27T00:42:24;45.46;41.17;53.52;;
69616;Laerm;56822;52.516;4.708;2023-05-27T00:42:34;45.14;42.18;48.03;;
69616;Laerm;56822;52.516;4.708;2023-05-27T00:42:44;43.12;39.98;47.34;;
69616;Laerm;56822;52.516;4.708;2023-05-27T00:42:55;43.63;40.50;48.44;;
69616;Laerm;56822;52.516;4.708;2023-05-27T00:43:05;43.95;40.44;50.46;;
69616;Laerm;56822;52.516;4.708;2023-05-27T00:43:16;43.83;40.84;49.57;;
69616;Laerm;56822;52.516;4.708;2023-05-27T00:43:26;43.99;40.88;46.96;;
69616;Laerm;56822;52.516;4.708;2023-05-27T00:43:55;43.25;40.36;46.44;;
69616;Laerm;56822;52.516;4.708;2023-05-27T00:44:09;44.98;39.99;48.66;;
69616;Laerm;56822;52.516;4.708;2023-05-27T00:44:20;43.75;40.84;48.96;;
69616;Laerm;56822;52.516;4.708;2023-05-27T00:44:31;44.22;41.21;48.51;;
69616;Laerm;56822;52.516;4.708;2023-05-27T00:44:42;45.58;41.92;49.32;;
69616;Laerm;56822;52.516;4.708;2023-05-27T00:44:52;46.92;44.52;50.26;;
69616;Laerm;56822;52.516;4.708;2023-05-27T00:45:03;46.97;43.11;52.22;;
69616;Laerm;56822;52.516;4.708;2023-05-27T00:45:13;45.73;42.51;49.35;;
69616;Laerm;56822;52.516;4.708;2023-05-27T00:45:57;40.34;37.86;44.04;;
69616;Laerm;56822;52.516;4.708;2023-05-27T00:46:07;40.71;37.87;44.28;;
69616;Laerm;56822;52.516;4.708;2023-05-27T00:46:18;41.36;37.66;44.81;;
69616;Laerm;56822;52.516;4.708;2023-05-27T00:46:28;44.09;39.74;49.31;;
69616;Laerm;56822;52.516;4.708;2023-05-27T00:46:38;45.11;41.32;52.33;;
69616;Laerm;56822;52.516;4.708;2023-05-27T00:46:49;41.95;39.39;46.49;;
69616;Laerm;56822;52.516;4.708;2023-05-27T00:47:00;41.50;38.07;45.89;;
69616;Laerm;56822;52.516;4.708;2023-05-27T00:47:10;40.55;36.90;44.46;;
69616;Laerm;56822;52.516;4.708;2023-05-27T00:47:21;41.23;37.60;44.79;;
69616;Laerm;56822;52.516;4.708;2023-05-27T00:47:31;43.37;40.60;46.11;;
69616;Laerm;56822;52.516;4.708;2023-05-27T00:47:43;45.42;42.46;47.88;;
69616;Laerm;56822;52.516;4.708;2023-05-27T00:47:54;47.26;45.00;51.65;;
69616;Laerm;56822;52.516;4.708;2023-05-27T00:48:04;47.42;43.98;51.41;;
69616;Laerm;56822;52.516;4.708;2023-05-27T00:48:14;46.45;40.09;51.51;;
69616;Laerm;56822;52.516;4.708;2023-05-27T00:48:25;40.11;37.16;42.75;;
69616;Laerm;56822;52.516;4.708;2023-05-27T00:49:03;43.24;37.67;48.91;;
69616;Laerm;56822;52.516;4.708;2023-05-27T00:49:14;43.14;39.27;49.89;;
69616;Laerm;56822;52.516;4.708;2023-05-27T00:49:24;40.86;37.91;44.41;;
69616;Laerm;56822;52.516;4.708;2023-05-27T00:49:37;44.62;40.37;49.00;;
69616;Laerm;56822;52.516;4.708;2023-05-27T00:49:48;40.75;37.37;48.46;;
69616;Laerm;56822;52.516;4.708;2023-05-27T00:50:37;42.82;39.10;50.34;;
69616;Laerm;56822;52.516;4.708;2023-05-27T00:50:47;40.87;38.27;47.44;;
69616;Laerm;56822;52.516;4.708;2023-05-27T00:52:16;40.94;37.75;44.62;;
69616;Laerm;56822;52.516;4.708;2023-05-27T00:52:26;44.30;40.42;51.95;;
69616;Laerm;56822;52.516;4.708;2023-05-27T00:52:37;44.05;39.38;51.65;;
69616;Laerm;56822;52.516;4.708;2023-05-27T00:52:47;42.02;37.94;45.86;;
69616;Laerm;56822;52.516;4.708;2023-05-27T00:52:58;41.99;38.61;45.23;;
69616;Laerm;56822;52.516;4.708;2023-05-27T00:53:09;44.31;40.99;47.53;;
69616;Laerm;56822;52.516;4.708;2023-05-27T00:53:19;45.55;42.60;49.49;;
69616;Laerm;56822;52.516;4.708;2023-05-27T00:53:31;45.74;42.51;49.13;;
69616;Laerm;56822;52.516;4.708;2023-05-27T00:53:46;44.93;40.80;50.37;;
69616;Laerm;56822;52.516;4.708;2023-05-27T00:53:56;39.88;36.34;43.14;;
69616;Laerm;56822;52.516;4.708;2023-05-27T00:54:07;41.37;37.10;46.51;;
69616;Laerm;56822;52.516;4.708;2023-05-27T00:54:18;42.85;39.07;46.97;;
69616;Laerm;56822;52.516;4.708;2023-05-27T00:54:29;44.67;41.69;52.50;;
69616;Laerm;56822;52.516;4.708;2023-05-27T00:54:41;42.93;38.70;48.04;;
69616;Laerm;56822;52.516;4.708;2023-05-27T00:54:52;42.48;38.99;48.33;;
69616;Laerm;56822;52.516;4.708;2023-05-27T00:55:03;41.84;38.62;46.09;;
69616;Laerm;56822;52.516;4.708;2023-05-27T00:55:14;43.26;38.63;50.57;;
69616;Laerm;56822;52.516;4.708;2023-05-27T00:55:24;45.97;41.70;50.56;;
69616;Laerm;56822;52.516;4.708;2023-05-27T00:55:35;44.14;39.24;53.39;;
69616;Laerm;56822;52.516;4.708;2023-05-27T00:55:45;45.62;39.79;53.70;;
69616;Laerm;56822;52.516;4.708;2023-05-27T00:55:56;42.28;37.85;52.79;;
69616;Laerm;56822;52.516;4.708;2023-05-27T00:56:10;38.12;33.76;46.29;;
69616;Laerm;56822;52.516;4.708;2023-05-27T00:56:21;39.24;35.68;44.71;;
69616;Laerm;56822;52.516;4.708;2023-05-27T00:56:32;41.89;37.96;47.31;;
69616;Laerm;56822;52.516;4.708;2023-05-27T00:56:42;41.52;37.21;48.02;;
69616;Laerm;56822;52.516;4.708;2023-05-27T00:56:53;42.58;38.81;49.20;;
69616;Laerm;56822;52.516;4.708;2023-05-27T00:57:04;43.15;38.73;49.31;;
69616;Laerm;56822;52.516;4.708;2023-05-27T00:57:16;40.30;37.16;44.46;;
69616;Laerm;56822;52.516;4.708;2023-05-27T00:57:26;40.10;37.32;43.84;;
69616;Laerm;56822;52.516;4.708;2023-05-27T00:57:36;41.26;37.86;45.07;;
69616;Laerm;56822;52.516;4.708;2023-05-27T00:57:47;39.81;36.96;42.98;;
69616;Laerm;56822;52.516;4.708;2023-05-27T00:57:58;41.84;37.96;47.59;;
69616;Laerm;56822;52.516;4.708;2023-05-27T00:58:09;40.05;36.14;44.99;;
69616;Laerm;56822;52.516;4.708;2023-05-27T00:58:19;41.01;37.24;44.88;;
69616;Laerm;56822;52.516;4.708;2023-05-27T00:58:31;45.33;40.50;50.90;;
69616;Laerm;56822;52.516;4.708;2023-05-27T00:58:42;42.23;39.56;46.02;;
69616;Laerm;56822;52.516;4.708;2023-05-27T00:58:52;43.57;38.50;47.70;;
69616;Laerm;56822;52.516;4.708;2023-05-27T00:59:03;41.39;38.44;45.64;;
69616;Laerm;56822;52.516;4.708;2023-05-27T00:59:14;43.41;40.16;50.12;;
69616;Laerm;56822;52.516;4.708;2023-05-27T01:00:18;42.51;38.84;46.80;;
69616;Laerm;56822;52.516;4.708;2023-05-27T01:00:28;43.02;38.01;48.82;;
69616;Laerm;56822;52.516;4.708;2023-05-27T01:00:39;40.09;37.27;42.92;;
69616;Laerm;56822;52.516;4.708;2023-05-27T01:00:49;42.31;39.28;46.30;;
69616;Laerm;56822;52.516;4.708;2023-05-27T01:01:00;43.31;39.31;47.88;;
69616;Laerm;56822;52.516;4.708;2023-05-27T01:03:12;43.00;38.70;46.72;;
69616;Laerm;56822;52.516;4.708;2023-05-27T01:03:22;41.58;36.79;45.58;;
69616;Laerm;56822;52.516;4.708;2023-05-27T01:03:33;40.99;36.93;46.24;;
69616;Laerm;56822;52.516;4.708;2023-05-27T01:03:57;41.65;38.01;46.09;;
69616;Laerm;56822;52.516;4.708;2023-05-27T01:04:07;41.13;36.36;46.15;;
69616;Laerm;56822;52.516;4.708;2023-05-27T01:04:24;42.58;38.21;46.38;;
69616;Laerm;56822;52.516;4.708;2023-05-27T01:04:34;41.73;38.49;47.24;;
69616;Laerm;56822;52.516;4.708;2023-05-27T01:04:46;44.55;41.57;49.32;;
69616;Laerm;56822;52.516;4.708;2023-05-27T01:04:56;44.46;40.91;49.33;;
69616;Laerm;56822;52.516;4.708;2023-05-27T01:05:07;41.51;37.56;47.90;;
69616;Laerm;56822;52.516;4.708;2023-05-27T01:05:19;39.65;36.58;44.28;;
69616;Laerm;56822;52.516;4.708;2023-05-27T01:05:31;42.30;38.94;46.87;;
69616;Laerm;56822;52.516;4.708;2023-05-27T01:05:42;44.32;41.40;48.33;;
69616;Laerm;56822;52.516;4.708;2023-05-27T01:05:52;39.42;36.86;42.84;;
69616;Laerm;56822;52.516;4.708;2023-05-27T01:06:10;39.05;35.72;43.15;;
69616;Laerm;56822;52.516;4.708;2023-05-27T01:06:48;41.48;37.79;47.10;;
69616;Laerm;56822;52.516;4.708;2023-05-27T01:07:17;39.62;36.75;42.58;;
69616;Laerm;56822;52.516;4.708;2023-05-27T01:08:28;42.86;38.72;48.20;;
69616;Laerm;56822;52.516;4.708;2023-05-27T01:08:45;45.50;40.18;49.60;;
69616;Laerm;56822;52.516;4.708;2023-05-27T01:09:16;43.44;39.75;48.38;;
69616;Laerm;56822;52.516;4.708;2023-05-27T01:10:10;44.55;40.54;50.75;;
69616;Laerm;56822;52.516;4.708;2023-05-27T01:10:28;44.12;38.90;51.51;;
69616;Laerm;56822;52.516;4.708;2023-05-27T01:10:46;43.93;39.24;50.15;;
69616;Laerm;56822;52.516;4.708;2023-05-27T01:10:58;45.20;40.19;49.32;;
69616;Laerm;56822;52.516;4.708;2023-05-27T01:11:11;46.32;43.77;49.67;;
69616;Laerm;56822;52.516;4.708;2023-05-27T01:11:23;44.22;40.65;47.88;;
69616;Laerm;56822;52.516;4.708;2023-05-27T01:11:43;44.84;41.05;50.53;;
69616;Laerm;56822;52.516;4.708;2023-05-27T01:12:37;45.70;40.13;50.80;;
69616;Laerm;56822;52.516;4.708;2023-05-27T01:13:02;46.85;43.35;53.13;;
69616;Laerm;56822;52.516;4.708;2023-05-27T01:13:18;45.18;41.56;48.56;;
69616;Laerm;56822;52.516;4.708;2023-05-27T01:13:46;43.15;40.25;47.00;;
69616;Laerm;56822;52.516;4.708;2023-05-27T01:14:00;44.52;40.34;50.10;;
69616;Laerm;56822;52.516;4.708;2023-05-27T01:14:13;42.01;37.54;45.55;;
69616;Laerm;56822;52.516;4.708;2023-05-27T01:14:24;42.28;39.15;46.10;;
69616;Laerm;56822;52.516;4.708;2023-05-27T01:14:36;39.85;34.31;45.93;;
69616;Laerm;56822;52.516;4.708;2023-05-27T01:15:27;43.23;39.66;50.52;;
69616;Laerm;56822;52.516;4.708;2023-05-27T01:15:39;42.75;40.05;45.90;;
69616;Laerm;56822;52.516;4.708;2023-05-27T01:15:50;41.33;38.00;45.19;;
69616;Laerm;56822;52.516;4.708;2023-05-27T01:16:17;44.98;37.68;50.09;;
69616;Laerm;56822;52.516;4.708;2023-05-27T01:16:28;38.38;35.49;41.79;;
69616;Laerm;56822;52.516;4.708;2023-05-27T01:16:40;42.01;38.82;45.89;;
69616;Laerm;56822;52.516;4.708;2023-05-27T01:16:54;42.08;37.23;45.43;;
69616;Laerm;56822;52.516;4.708;2023-05-27T01:17:06;46.16;42.60;50.44;;
69616;Laerm;56822;52.516;4.708;2023-05-27T01:17:23;41.63;36.07;47.78;;
69616;Laerm;56822;52.516;4.708;2023-05-27T01:17:34;41.38;36.16;46.11;;
69616;Laerm;56822;52.516;4.708;2023-05-27T01:17:47;43.13;40.42;49.50;;
69616;Laerm;56822;52.516;4.708;2023-05-27T01:17:59;45.41;41.51;49.39;;
69616;Laerm;56822;52.516;4.708;2023-05-27T01:18:12;42.63;37.68;49.07;;
69616;Laerm;56822;52.516;4.708;2023-05-27T01:18:27;42.22;37.51;48.92;;
69616;Laerm;56822;52.516;4.708;2023-05-27T01:18:40;44.04;39.65;49.06;;
69616;Laerm;56822;52.516;4.708;2023-05-27T01:18:53;41.08;36.44;44.62;;
69616;Laerm;56822;52.516;4.708;2023-05-27T01:19:04;41.98;39.01;46.43;;
69616;Laerm;56822;52.516;4.708;2023-05-27T01:19:24;43.44;39.26;51.33;;
69616;Laerm;56822;52.516;4.708;2023-05-27T01:19:40;43.69;38.54;50.58;;
69616;Laerm;56822;52.516;4.708;2023-05-27T01:19:52;40.01;36.53;46.02;;
69616;Laerm;56822;52.516;4.708;2023-05-27T01:20:03;42.48;39.57;47.94;;
69616;Laerm;56822;52.516;4.708;2023-05-27T01:20:20;41.10;36.84;47.87;;
69616;Laerm;56822;52.516;4.708;2023-05-27T01:20:30;39.96;36.90;45.26;;
69616;Laerm;56822;52.516;4.708;2023-05-27T01:20:43;41.34;37.04;44.42;;
69616;Laerm;56822;52.516;4.708;2023-05-27T01:20:54;41.84;38.54;44.53;;
69616;Laerm;56822;52.516;4.708;2023-05-27T01:21:11;42.13;37.68;48.65;;
69616;Laerm;56822;52.516;4.708;2023-05-27T01:21:26;45.97;41.99;51.03;;
69616;Laerm;56822;52.516;4.708;2023-05-27T01:21:40;44.37;40.73;47.94;;
69616;Laerm;56822;52.516;4.708;2023-05-27T01:21:54;44.78;41.55;52.53;;
69616;Laerm;56822;52.516;4.708;2023-05-27T01:22:07;42.83;38.82;46.48;;
69616;Laerm;56822;52.516;4.708;2023-05-27T01:22:17;41.37;38.24;44.33;;
69616;Laerm;56822;52.516;4.708;2023-05-27T01:22:29;43.80;39.95;48.40;;
69616;Laerm;56822;52.516;4.708;2023-05-27T01:22:42;44.75;40.84;50.26;;
69616;Laerm;56822;52.516;4.708;2023-05-27T01:22:53;45.08;41.84;48.23;;
69616;Laerm;56822;52.516;4.708;2023-05-27T01:23:04;43.49;40.79;49.08;;
69616;Laerm;56822;52.516;4.708;2023-05-27T01:24:02;43.09;39.03;47.82;;